JES3790 SABE-SGAS
Flight info
| Callsign | JES3790 |
|---|---|
| Flight time | 1h 35m |
| Altitude | 39000 |
| Route | LANDA4B LANDA UN785 GUA UL793 DALAB UZ103 REPAM UP526 SAMGU SAMGU |
| Aircraft | A20N/M-SDE2E3FGHIRWXY/LB1 |
Departure
| Time | 2026-04-20 18:44 |
|---|---|
| Airport | Aeroparque Jorge Newbery (SABE) |
Arrival
| Time | 2026-04-20 20:20 |
|---|---|
| Airport | Silvio Pettirossi International Airport (SGAS) |
| Time | Latitude | Longitude | Altitude | Speed | Heading |
|---|---|---|---|---|---|
| 2026-04-20 18:17 | -34.55720 | -58.41404 | 29 ft | 0 kts | 29° |
| 2026-04-20 18:36 | -34.55726 | -58.41408 | 26 ft | 3 kts | 29° |
| 2026-04-20 18:36 | -34.55743 | -58.41416 | 30 ft | 3 kts | 341° |
| 2026-04-20 18:36 | -34.55753 | -58.41409 | 29 ft | 0 kts | 303° |
| 2026-04-20 18:39 | -34.55751 | -58.41412 | 26 ft | 1 kts | 303° |
| 2026-04-20 18:39 | -34.55744 | -58.41431 | 28 ft | 5 kts | 290° |
| 2026-04-20 18:40 | -34.55728 | -58.41482 | 27 ft | 8 kts | 295° |
| 2026-04-20 18:40 | -34.55722 | -58.41542 | 28 ft | 7 kts | 247° |
| 2026-04-20 18:40 | -34.55761 | -58.41579 | 27 ft | 8 kts | 213° |
| 2026-04-20 18:40 | -34.55779 | -58.41633 | 26 ft | 7 kts | 283° |
| 2026-04-20 18:41 | -34.55756 | -58.41692 | 27 ft | 8 kts | 296° |
| 2026-04-20 18:41 | -34.55723 | -58.41767 | 28 ft | 12 kts | 302° |
| 2026-04-20 18:41 | -34.55669 | -58.41867 | 27 ft | 16 kts | 303° |
| 2026-04-20 18:41 | -34.55605 | -58.41981 | 28 ft | 16 kts | 304° |
| 2026-04-20 18:42 | -34.55539 | -58.42092 | 28 ft | 16 kts | 307° |
| 2026-04-20 18:42 | -34.55472 | -58.42201 | 26 ft | 16 kts | 307° |
| 2026-04-20 18:42 | -34.55405 | -58.42309 | 29 ft | 16 kts | 307° |
| 2026-04-20 18:42 | -34.55370 | -58.42367 | 26 ft | 0 kts | 298° |
| 2026-04-20 18:43 | -34.55365 | -58.42381 | 27 ft | 5 kts | 291° |
| 2026-04-20 18:43 | -34.55354 | -58.42443 | 27 ft | 11 kts | 281° |
| 2026-04-20 18:43 | -34.55384 | -58.42508 | 29 ft | 9 kts | 190° |
| 2026-04-20 18:44 | -34.55435 | -58.42449 | 26 ft | 25 kts | 124° |
| 2026-04-20 18:44 | -34.55673 | -58.42023 | 27 ft | 95 kts | 124° |
| 2026-04-20 18:44 | -34.56147 | -58.41188 | 226 ft | 129 kts | 126° |
| 2026-04-20 18:44 | -34.56641 | -58.40292 | 956 ft | 124 kts | 123° |
| 2026-04-20 18:45 | -34.57014 | -58.39295 | 1364 ft | 149 kts | 95° |
| 2026-04-20 18:45 | -34.56609 | -58.37999 | 1607 ft | 189 kts | 50° |
| 2026-04-20 18:45 | -34.55441 | -58.36930 | 1906 ft | 229 kts | 34° |
| 2026-04-20 18:45 | -34.53995 | -58.35931 | 2581 ft | 244 kts | 31° |
| 2026-04-20 18:46 | -34.52514 | -58.34923 | 3612 ft | 245 kts | 30° |
| 2026-04-20 18:46 | -34.50992 | -58.33915 | 4530 ft | 252 kts | 26° |
| 2026-04-20 18:46 | -34.49378 | -58.33075 | 5375 ft | 257 kts | 18° |
| 2026-04-20 18:46 | -34.47663 | -58.32502 | 6389 ft | 256 kts | 11° |
| 2026-04-20 18:47 | -34.45892 | -58.32234 | 7354 ft | 257 kts | 2° |
| 2026-04-20 18:47 | -34.44084 | -58.32282 | 8210 ft | 264 kts | 353° |
| 2026-04-20 18:47 | -34.42265 | -58.32672 | 9087 ft | 268 kts | 344° |
| 2026-04-20 18:47 | -34.40475 | -58.33413 | 9941 ft | 275 kts | 335° |
| 2026-04-20 18:48 | -34.38737 | -58.34516 | 10502 ft | 293 kts | 327° |
| 2026-04-20 18:48 | -34.36964 | -58.35939 | 10825 ft | 317 kts | 324° |
| 2026-04-20 18:48 | -34.35104 | -58.37509 | 11355 ft | 331 kts | 324° |
| 2026-04-20 18:48 | -34.33228 | -58.39091 | 12187 ft | 334 kts | 324° |
| 2026-04-20 18:49 | -34.31302 | -58.40703 | 13011 ft | 340 kts | 324° |
| 2026-04-20 18:49 | -34.29338 | -58.42340 | 13837 ft | 345 kts | 324° |
| 2026-04-20 18:49 | -34.27347 | -58.43994 | 14581 ft | 350 kts | 324° |
| 2026-04-20 18:49 | -34.25322 | -58.45673 | 15307 ft | 355 kts | 324° |
| 2026-04-20 18:50 | -34.23272 | -58.47372 | 16070 ft | 358 kts | 324° |
| 2026-04-20 18:50 | -34.21204 | -58.49083 | 16842 ft | 362 kts | 323° |
| 2026-04-20 18:50 | -34.19118 | -58.50809 | 17603 ft | 365 kts | 323° |
| 2026-04-20 18:50 | -34.17006 | -58.52554 | 18379 ft | 369 kts | 323° |
| 2026-04-20 18:51 | -34.14863 | -58.54292 | 19022 ft | 373 kts | 326° |
| 2026-04-20 18:51 | -34.12545 | -58.55733 | 19683 ft | 379 kts | 335° |
| 2026-04-20 18:51 | -34.09981 | -58.56580 | 20365 ft | 387 kts | 347° |
| 2026-04-20 18:51 | -34.07315 | -58.56864 | 21015 ft | 392 kts | 353° |
| 2026-04-20 18:52 | -34.04542 | -58.56986 | 21660 ft | 395 kts | 353° |
| 2026-04-20 18:52 | -34.01820 | -58.57083 | 22260 ft | 399 kts | 353° |
| 2026-04-20 18:52 | -33.99029 | -58.57187 | 22843 ft | 402 kts | 353° |
| 2026-04-20 18:52 | -33.96224 | -58.57298 | 23448 ft | 405 kts | 353° |
| 2026-04-20 18:53 | -33.93400 | -58.57415 | 23955 ft | 408 kts | 352° |
| 2026-04-20 18:53 | -33.90558 | -58.57534 | 24459 ft | 409 kts | 352° |
| 2026-04-20 18:53 | -33.87701 | -58.57653 | 24986 ft | 411 kts | 352° |
| 2026-04-20 18:53 | -33.84835 | -58.57774 | 25475 ft | 412 kts | 352° |
| 2026-04-20 18:54 | -33.81969 | -58.57897 | 25984 ft | 414 kts | 352° |
| 2026-04-20 18:54 | -33.80056 | -58.57979 | 26319 ft | 415 kts | 352° |
| 2026-04-20 18:54 | -33.77155 | -58.58105 | 26818 ft | 416 kts | 352° |
| 2026-04-20 18:54 | -33.74263 | -58.58231 | 27300 ft | 418 kts | 352° |
| 2026-04-20 18:55 | -33.71338 | -58.58359 | 27753 ft | 420 kts | 352° |
| 2026-04-20 18:55 | -33.68406 | -58.58487 | 28199 ft | 421 kts | 351° |
| 2026-04-20 18:55 | -33.65515 | -58.58613 | 28625 ft | 423 kts | 351° |
| 2026-04-20 18:55 | -33.62562 | -58.58741 | 29044 ft | 425 kts | 352° |
| 2026-04-20 18:56 | -33.59598 | -58.58870 | 29476 ft | 426 kts | 352° |
| 2026-04-20 18:56 | -33.56627 | -58.58999 | 29888 ft | 428 kts | 352° |
| 2026-04-20 18:56 | -33.53644 | -58.59128 | 30305 ft | 428 kts | 352° |
| 2026-04-20 18:56 | -33.50670 | -58.59254 | 30839 ft | 424 kts | 352° |
| 2026-04-20 18:57 | -33.47738 | -58.59376 | 31450 ft | 419 kts | 351° |
| 2026-04-20 18:57 | -33.44843 | -58.59496 | 32062 ft | 414 kts | 351° |
| 2026-04-20 18:57 | -33.42010 | -58.59615 | 32633 ft | 409 kts | 351° |
| 2026-04-20 18:57 | -33.39191 | -58.59736 | 33201 ft | 404 kts | 351° |
| 2026-04-20 18:58 | -33.36396 | -58.59856 | 33768 ft | 399 kts | 351° |
| 2026-04-20 18:58 | -33.33633 | -58.59976 | 34255 ft | 395 kts | 351° |
| 2026-04-20 18:58 | -33.30892 | -58.60096 | 34610 ft | 394 kts | 351° |
| 2026-04-20 18:58 | -33.28142 | -58.60219 | 34867 ft | 395 kts | 351° |
| 2026-04-20 18:59 | -33.25385 | -58.60343 | 35135 ft | 396 kts | 351° |
| 2026-04-20 18:59 | -33.22634 | -58.60465 | 35416 ft | 396 kts | 351° |
| 2026-04-20 18:59 | -33.19881 | -58.60585 | 35662 ft | 396 kts | 351° |
| 2026-04-20 18:59 | -33.17137 | -58.60702 | 36041 ft | 393 kts | 351° |
| 2026-04-20 19:00 | -33.14449 | -58.60815 | 36420 ft | 390 kts | 350° |
| 2026-04-20 19:00 | -33.11729 | -58.60931 | 36715 ft | 390 kts | 350° |
| 2026-04-20 19:00 | -33.09013 | -58.61048 | 36994 ft | 391 kts | 350° |
| 2026-04-20 19:00 | -33.06297 | -58.61166 | 37273 ft | 390 kts | 350° |
| 2026-04-20 19:01 | -33.03578 | -58.61284 | 37527 ft | 390 kts | 350° |
| 2026-04-20 19:01 | -33.00869 | -58.61411 | 37787 ft | 389 kts | 349° |
| 2026-04-20 19:01 | -32.98170 | -58.61592 | 38047 ft | 388 kts | 349° |
| 2026-04-20 19:01 | -32.95479 | -58.61811 | 38260 ft | 387 kts | 348° |
| 2026-04-20 19:02 | -32.92793 | -58.62047 | 38477 ft | 387 kts | 348° |
| 2026-04-20 19:02 | -32.90098 | -58.62288 | 38695 ft | 387 kts | 348° |
| 2026-04-20 19:02 | -32.87445 | -58.62523 | 38885 ft | 388 kts | 348° |
| 2026-04-20 19:02 | -32.84713 | -58.62763 | 38966 ft | 389 kts | 348° |
| 2026-04-20 19:03 | -32.79347 | -58.63221 | 38978 ft | 388 kts | 348° |
| 2026-04-20 19:03 | -32.73958 | -58.63672 | 38964 ft | 388 kts | 349° |
| 2026-04-20 19:04 | -32.68566 | -58.64125 | 38990 ft | 389 kts | 349° |
| 2026-04-20 19:04 | -32.63153 | -58.64578 | 38997 ft | 389 kts | 349° |
| 2026-04-20 19:05 | -32.57780 | -58.65027 | 38989 ft | 389 kts | 349° |
| 2026-04-20 19:05 | -32.52365 | -58.65479 | 38961 ft | 389 kts | 349° |
| 2026-04-20 19:06 | -32.46956 | -58.65930 | 38990 ft | 389 kts | 349° |
| 2026-04-20 19:06 | -32.41553 | -58.66380 | 38988 ft | 389 kts | 349° |
| 2026-04-20 19:07 | -32.36187 | -58.66825 | 38987 ft | 389 kts | 350° |
| 2026-04-20 19:07 | -32.30706 | -58.66482 | 38985 ft | 400 kts | 359° |
| 2026-04-20 19:08 | -32.22413 | -58.64858 | 38980 ft | 403 kts | 2° |
| 2026-04-20 19:09 | -32.16891 | -58.63672 | 38979 ft | 403 kts | 1° |
| 2026-04-20 19:09 | -32.11371 | -58.62505 | 38980 ft | 403 kts | 1° |
| 2026-04-20 19:10 | -32.05841 | -58.61354 | 38983 ft | 403 kts | 1° |
| 2026-04-20 19:10 | -32.00313 | -58.60213 | 38979 ft | 405 kts | 2° |
| 2026-04-20 19:11 | -31.94757 | -58.59067 | 38976 ft | 406 kts | 2° |
| 2026-04-20 19:11 | -31.89194 | -58.57918 | 38974 ft | 406 kts | 2° |
| 2026-04-20 19:12 | -31.83665 | -58.56778 | 38973 ft | 406 kts | 2° |
| 2026-04-20 19:12 | -31.78104 | -58.55632 | 38965 ft | 406 kts | 2° |
| 2026-04-20 19:13 | -31.72523 | -58.54485 | 38971 ft | 407 kts | 2° |
| 2026-04-20 19:13 | -31.66943 | -58.53339 | 38971 ft | 407 kts | 2° |
| 2026-04-20 19:14 | -31.61351 | -58.52191 | 38966 ft | 407 kts | 2° |
| 2026-04-20 19:14 | -31.55796 | -58.51053 | 38968 ft | 407 kts | 2° |
| 2026-04-20 19:15 | -31.50212 | -58.49909 | 38969 ft | 406 kts | 2° |
| 2026-04-20 19:15 | -31.44673 | -58.48775 | 38966 ft | 403 kts | 2° |
| 2026-04-20 19:16 | -31.39139 | -58.47646 | 38960 ft | 403 kts | 2° |
| 2026-04-20 19:16 | -31.33664 | -58.46526 | 38966 ft | 395 kts | 2° |
| 2026-04-20 19:17 | -31.28273 | -58.45426 | 38956 ft | 392 kts | 2° |
| 2026-04-20 19:17 | -31.22888 | -58.44335 | 38965 ft | 393 kts | 2° |
| 2026-04-20 19:18 | -31.17521 | -58.43248 | 38966 ft | 393 kts | 2° |
| 2026-04-20 19:18 | -31.12138 | -58.42156 | 38963 ft | 393 kts | 2° |
| 2026-04-20 19:19 | -31.06748 | -58.41063 | 38963 ft | 393 kts | 2° |
| 2026-04-20 19:19 | -31.01362 | -58.39972 | 38960 ft | 393 kts | 2° |
| 2026-04-20 19:20 | -30.95978 | -58.38882 | 38960 ft | 392 kts | 2° |
| 2026-04-20 19:20 | -30.90640 | -58.37804 | 38957 ft | 392 kts | 2° |
| 2026-04-20 19:21 | -30.85266 | -58.36666 | 38958 ft | 392 kts | 3° |
| 2026-04-20 19:21 | -30.79888 | -58.35477 | 38954 ft | 393 kts | 3° |
| 2026-04-20 19:22 | -30.74552 | -58.34294 | 38959 ft | 393 kts | 4° |
| 2026-04-20 19:22 | -30.69175 | -58.33109 | 38949 ft | 393 kts | 4° |
| 2026-04-20 19:23 | -30.63785 | -58.31927 | 38952 ft | 393 kts | 4° |
| 2026-04-20 19:23 | -30.58409 | -58.30768 | 38950 ft | 393 kts | 3° |
| 2026-04-20 19:24 | -30.53021 | -58.29710 | 38924 ft | 392 kts | 2° |
| 2026-04-20 19:24 | -30.47606 | -58.28682 | 38946 ft | 394 kts | 3° |
| 2026-04-20 19:25 | -30.42212 | -58.27652 | 38946 ft | 395 kts | 3° |
| 2026-04-20 19:25 | -30.36789 | -58.26609 | 38946 ft | 395 kts | 3° |
| 2026-04-20 19:26 | -30.31358 | -58.25563 | 38948 ft | 395 kts | 3° |
| 2026-04-20 19:26 | -30.25930 | -58.24519 | 38942 ft | 395 kts | 3° |
| 2026-04-20 19:27 | -30.20486 | -58.23474 | 38943 ft | 397 kts | 3° |
| 2026-04-20 19:27 | -30.15025 | -58.22427 | 38945 ft | 398 kts | 3° |
| 2026-04-20 19:28 | -30.09556 | -58.21378 | 38947 ft | 398 kts | 3° |
| 2026-04-20 19:28 | -30.04128 | -58.20338 | 38947 ft | 398 kts | 3° |
| 2026-04-20 19:29 | -29.98655 | -58.19293 | 38943 ft | 402 kts | 3° |
| 2026-04-20 19:29 | -29.93062 | -58.18232 | 38942 ft | 411 kts | 3° |
| 2026-04-20 19:30 | -29.87425 | -58.17155 | 38941 ft | 410 kts | 3° |
| 2026-04-20 19:30 | -29.81796 | -58.16074 | 38944 ft | 410 kts | 3° |
| 2026-04-20 19:31 | -29.76205 | -58.14932 | 38948 ft | 410 kts | 4° |
| 2026-04-20 19:31 | -29.70585 | -58.13747 | 38943 ft | 410 kts | 4° |
| 2026-04-20 19:32 | -29.64969 | -58.12566 | 38944 ft | 410 kts | 4° |
| 2026-04-20 19:32 | -29.59349 | -58.11391 | 38942 ft | 410 kts | 4° |
| 2026-04-20 19:33 | -29.53757 | -58.10227 | 38942 ft | 410 kts | 4° |
| 2026-04-20 19:33 | -29.49043 | -58.09248 | 38940 ft | 410 kts | 4° |
| 2026-04-20 19:34 | -29.42515 | -58.07890 | 38942 ft | 411 kts | 5° |
| 2026-04-20 19:34 | -29.36893 | -58.06517 | 38942 ft | 413 kts | 7° |
| 2026-04-20 19:35 | -29.31291 | -58.05011 | 38938 ft | 413 kts | 7° |
| 2026-04-20 19:35 | -29.25683 | -58.03502 | 38940 ft | 413 kts | 7° |
| 2026-04-20 19:36 | -29.20126 | -58.02028 | 38942 ft | 412 kts | 7° |
| 2026-04-20 19:36 | -29.14544 | -58.00560 | 38938 ft | 411 kts | 7° |
| 2026-04-20 19:37 | -29.08955 | -57.99096 | 38941 ft | 411 kts | 7° |
| 2026-04-20 19:37 | -29.03381 | -57.97636 | 38935 ft | 411 kts | 7° |
| 2026-04-20 19:38 | -28.97799 | -57.96174 | 38916 ft | 411 kts | 7° |
| 2026-04-20 19:38 | -28.92219 | -57.94716 | 38930 ft | 412 kts | 7° |
| 2026-04-20 19:39 | -28.86635 | -57.93256 | 38928 ft | 412 kts | 7° |
| 2026-04-20 19:39 | -28.81032 | -57.91794 | 38927 ft | 412 kts | 7° |
| 2026-04-20 19:40 | -28.75438 | -57.90336 | 38926 ft | 413 kts | 7° |
| 2026-04-20 19:40 | -28.69871 | -57.88887 | 38919 ft | 413 kts | 7° |
| 2026-04-20 19:41 | -28.64242 | -57.87424 | 38920 ft | 415 kts | 7° |
| 2026-04-20 19:41 | -28.58589 | -57.85955 | 38920 ft | 416 kts | 7° |
| 2026-04-20 19:42 | -28.53892 | -57.84735 | 38916 ft | 416 kts | 7° |
| 2026-04-20 19:42 | -28.48245 | -57.83271 | 38914 ft | 416 kts | 7° |
| 2026-04-20 19:43 | -28.41675 | -57.81569 | 38905 ft | 418 kts | 8° |
| 2026-04-20 19:43 | -28.35941 | -57.80091 | 38912 ft | 427 kts | 8° |
| 2026-04-20 19:44 | -28.30074 | -57.78579 | 38907 ft | 437 kts | 8° |
| 2026-04-20 19:44 | -28.24075 | -57.77009 | 38907 ft | 444 kts | 8° |
| 2026-04-20 19:45 | -28.19080 | -57.75689 | 38906 ft | 443 kts | 8° |
| 2026-04-20 19:45 | -28.12104 | -57.73849 | 38905 ft | 443 kts | 7° |
| 2026-04-20 19:46 | -28.07070 | -57.72529 | 38903 ft | 444 kts | 7° |
| 2026-04-20 19:46 | -28.01074 | -57.70958 | 38900 ft | 444 kts | 7° |
| 2026-04-20 19:47 | -27.95055 | -57.69384 | 38905 ft | 444 kts | 7° |
| 2026-04-20 19:47 | -27.89027 | -57.67809 | 38913 ft | 444 kts | 7° |
| 2026-04-20 19:48 | -27.82986 | -57.66233 | 38903 ft | 447 kts | 7° |
| 2026-04-20 19:48 | -27.76916 | -57.64651 | 38903 ft | 448 kts | 7° |
| 2026-04-20 19:49 | -27.70826 | -57.63066 | 38903 ft | 450 kts | 7° |
| 2026-04-20 19:49 | -27.64728 | -57.61479 | 38906 ft | 450 kts | 7° |
| 2026-04-20 19:50 | -27.58656 | -57.59900 | 38907 ft | 450 kts | 7° |
| 2026-04-20 19:50 | -27.52565 | -57.58319 | 38908 ft | 449 kts | 7° |
| 2026-04-20 19:51 | -27.46481 | -57.56742 | 38908 ft | 449 kts | 7° |
| 2026-04-20 19:51 | -27.40364 | -57.55815 | 38910 ft | 440 kts | 356° |
| 2026-04-20 19:52 | -27.34242 | -57.55580 | 38900 ft | 439 kts | 355° |
| 2026-04-20 19:52 | -27.28134 | -57.55396 | 38906 ft | 439 kts | 355° |
| 2026-04-20 19:53 | -27.22012 | -57.55216 | 38905 ft | 439 kts | 355° |
| 2026-04-20 19:53 | -27.15908 | -57.55038 | 38841 ft | 438 kts | 355° |
| 2026-04-20 19:53 | -27.12852 | -57.54950 | 38185 ft | 440 kts | 355° |
| 2026-04-20 19:54 | -27.09759 | -57.54862 | 37265 ft | 447 kts | 356° |
| 2026-04-20 19:54 | -27.06629 | -57.54774 | 36364 ft | 454 kts | 356° |
| 2026-04-20 19:54 | -27.03489 | -57.54684 | 35587 ft | 459 kts | 356° |
| 2026-04-20 19:54 | -27.00281 | -57.54590 | 34784 ft | 463 kts | 356° |
| 2026-04-20 19:55 | -26.97039 | -57.54496 | 33939 ft | 469 kts | 356° |
| 2026-04-20 19:55 | -26.93755 | -57.54401 | 32967 ft | 474 kts | 357° |
| 2026-04-20 19:55 | -26.90460 | -57.54305 | 32048 ft | 477 kts | 357° |
| 2026-04-20 19:55 | -26.87124 | -57.54207 | 31076 ft | 480 kts | 357° |
| 2026-04-20 19:56 | -26.83768 | -57.54137 | 30176 ft | 482 kts | 357° |
| 2026-04-20 19:56 | -26.80440 | -57.54095 | 29654 ft | 471 kts | 357° |
| 2026-04-20 19:56 | -26.77192 | -57.54056 | 28526 ft | 466 kts | 357° |
| 2026-04-20 19:56 | -26.73929 | -57.54022 | 27121 ft | 470 kts | 356° |
| 2026-04-20 19:57 | -26.70644 | -57.53988 | 26244 ft | 470 kts | 356° |
| 2026-04-20 19:57 | -26.67380 | -57.53952 | 25467 ft | 468 kts | 356° |
| 2026-04-20 19:57 | -26.64133 | -57.53916 | 24798 ft | 465 kts | 356° |
| 2026-04-20 19:57 | -26.60943 | -57.53880 | 24089 ft | 462 kts | 356° |
| 2026-04-20 19:58 | -26.57769 | -57.53843 | 23386 ft | 453 kts | 356° |
| 2026-04-20 19:58 | -26.54634 | -57.53808 | 22241 ft | 448 kts | 356° |
| 2026-04-20 19:58 | -26.51527 | -57.53773 | 21538 ft | 442 kts | 356° |
| 2026-04-20 19:58 | -26.48462 | -57.53740 | 20826 ft | 437 kts | 355° |
| 2026-04-20 19:59 | -26.45475 | -57.53706 | 20461 ft | 422 kts | 355° |
| 2026-04-20 19:59 | -26.42587 | -57.53672 | 20181 ft | 408 kts | 355° |
| 2026-04-20 19:59 | -26.39767 | -57.53642 | 19861 ft | 403 kts | 355° |
| 2026-04-20 19:59 | -26.36960 | -57.53616 | 19542 ft | 402 kts | 355° |
| 2026-04-20 20:00 | -26.34170 | -57.53589 | 19224 ft | 400 kts | 354° |
| 2026-04-20 20:00 | -26.31391 | -57.53561 | 18906 ft | 398 kts | 355° |
| 2026-04-20 20:00 | -26.28628 | -57.53533 | 18602 ft | 395 kts | 355° |
| 2026-04-20 20:00 | -26.25881 | -57.53504 | 18296 ft | 393 kts | 354° |
| 2026-04-20 20:01 | -26.23156 | -57.53476 | 17956 ft | 390 kts | 354° |
| 2026-04-20 20:01 | -26.20451 | -57.53448 | 17638 ft | 387 kts | 355° |
| 2026-04-20 20:01 | -26.17767 | -57.53421 | 17340 ft | 385 kts | 355° |
| 2026-04-20 20:01 | -26.15097 | -57.53393 | 17035 ft | 382 kts | 355° |
| 2026-04-20 20:02 | -26.12477 | -57.53366 | 16742 ft | 380 kts | 355° |
| 2026-04-20 20:02 | -26.09844 | -57.53339 | 16447 ft | 377 kts | 356° |
| 2026-04-20 20:02 | -26.07216 | -57.53150 | 16132 ft | 378 kts | 1° |
| 2026-04-20 20:02 | -26.04612 | -57.52765 | 15835 ft | 376 kts | 4° |
| 2026-04-20 20:03 | -26.02022 | -57.52341 | 15543 ft | 374 kts | 5° |
| 2026-04-20 20:03 | -25.99457 | -57.51917 | 15244 ft | 371 kts | 5° |
| 2026-04-20 20:03 | -25.96943 | -57.51503 | 14960 ft | 369 kts | 5° |
| 2026-04-20 20:03 | -25.94377 | -57.51083 | 14672 ft | 367 kts | 5° |
| 2026-04-20 20:04 | -25.91894 | -57.50678 | 14392 ft | 364 kts | 5° |
| 2026-04-20 20:04 | -25.89392 | -57.50271 | 14108 ft | 362 kts | 5° |
| 2026-04-20 20:04 | -25.86899 | -57.49865 | 13826 ft | 360 kts | 5° |
| 2026-04-20 20:04 | -25.84436 | -57.49465 | 13522 ft | 357 kts | 5° |
| 2026-04-20 20:05 | -25.81973 | -57.49065 | 13233 ft | 356 kts | 5° |
| 2026-04-20 20:05 | -25.79529 | -57.48669 | 12953 ft | 354 kts | 5° |
| 2026-04-20 20:05 | -25.77085 | -57.48273 | 12679 ft | 354 kts | 5° |
| 2026-04-20 20:05 | -25.74649 | -57.47879 | 12401 ft | 353 kts | 5° |
| 2026-04-20 20:06 | -25.72227 | -57.47486 | 12121 ft | 351 kts | 5° |
| 2026-04-20 20:06 | -25.69817 | -57.47096 | 11847 ft | 349 kts | 5° |
| 2026-04-20 20:06 | -25.67413 | -57.46707 | 11571 ft | 348 kts | 5° |
| 2026-04-20 20:06 | -25.65035 | -57.46322 | 11286 ft | 346 kts | 6° |
| 2026-04-20 20:07 | -25.62657 | -57.45937 | 11043 ft | 342 kts | 6° |
| 2026-04-20 20:07 | -25.60360 | -57.45564 | 10866 ft | 326 kts | 6° |
| 2026-04-20 20:07 | -25.58178 | -57.45209 | 10619 ft | 314 kts | 5° |
| 2026-04-20 20:07 | -25.56048 | -57.44864 | 10368 ft | 299 kts | 5° |
| 2026-04-20 20:08 | -25.54062 | -57.44542 | 10139 ft | 284 kts | 5° |
| 2026-04-20 20:08 | -25.52140 | -57.44232 | 9866 ft | 274 kts | 6° |
| 2026-04-20 20:08 | -25.50259 | -57.43931 | 9600 ft | 273 kts | 6° |
| 2026-04-20 20:08 | -25.48374 | -57.43629 | 9380 ft | 274 kts | 6° |
| 2026-04-20 20:09 | -25.46493 | -57.43327 | 9159 ft | 272 kts | 6° |
| 2026-04-20 20:09 | -25.44622 | -57.43027 | 8946 ft | 271 kts | 6° |
| 2026-04-20 20:09 | -25.42758 | -57.42726 | 8734 ft | 271 kts | 6° |
| 2026-04-20 20:09 | -25.40895 | -57.42427 | 8520 ft | 270 kts | 6° |
| 2026-04-20 20:10 | -25.39040 | -57.42129 | 8310 ft | 269 kts | 6° |
| 2026-04-20 20:10 | -25.37187 | -57.41830 | 8101 ft | 269 kts | 7° |
| 2026-04-20 20:10 | -25.35343 | -57.41461 | 7861 ft | 269 kts | 9° |
| 2026-04-20 20:10 | -25.33513 | -57.41033 | 7639 ft | 268 kts | 10° |
| 2026-04-20 20:11 | -25.31694 | -57.40594 | 7424 ft | 267 kts | 10° |
| 2026-04-20 20:11 | -25.29881 | -57.40154 | 7224 ft | 267 kts | 10° |
| 2026-04-20 20:11 | -25.28094 | -57.39720 | 7043 ft | 265 kts | 10° |
| 2026-04-20 20:11 | -25.26287 | -57.39282 | 6737 ft | 266 kts | 10° |
| 2026-04-20 20:12 | -25.24484 | -57.38846 | 6319 ft | 265 kts | 10° |
| 2026-04-20 20:12 | -25.22692 | -57.38412 | 5938 ft | 262 kts | 11° |
| 2026-04-20 20:12 | -25.20911 | -57.37981 | 5571 ft | 261 kts | 11° |
| 2026-04-20 20:13 | -25.17388 | -57.37129 | 4873 ft | 257 kts | 11° |
| 2026-04-20 20:13 | -25.15651 | -57.36710 | 4517 ft | 255 kts | 11° |
| 2026-04-20 20:13 | -25.13916 | -57.36291 | 4163 ft | 254 kts | 11° |
| 2026-04-20 20:13 | -25.12177 | -57.35912 | 3815 ft | 254 kts | 6° |
| 2026-04-20 20:14 | -25.10420 | -57.36040 | 3451 ft | 255 kts | 344° |
| 2026-04-20 20:14 | -25.08910 | -57.37001 | 3100 ft | 258 kts | 317° |
| 2026-04-20 20:14 | -25.07949 | -57.38705 | 2741 ft | 263 kts | 291° |
| 2026-04-20 20:14 | -25.07478 | -57.40633 | 2386 ft | 264 kts | 284° |
| 2026-04-20 20:15 | -25.07101 | -57.42610 | 2036 ft | 263 kts | 283° |
| 2026-04-20 20:15 | -25.06913 | -57.44587 | 1894 ft | 254 kts | 267° |
| 2026-04-20 20:15 | -25.07444 | -57.46351 | 1891 ft | 237 kts | 235° |
| 2026-04-20 20:15 | -25.08560 | -57.47590 | 1887 ft | 221 kts | 215° |
| 2026-04-20 20:16 | -25.09835 | -57.48392 | 1919 ft | 200 kts | 202° |
| 2026-04-20 20:16 | -25.11108 | -57.48775 | 1899 ft | 179 kts | 191° |
| 2026-04-20 20:16 | -25.12248 | -57.49033 | 1911 ft | 158 kts | 192° |
| 2026-04-20 20:16 | -25.13259 | -57.49279 | 1916 ft | 142 kts | 192° |
| 2026-04-20 20:17 | -25.14219 | -57.49519 | 1904 ft | 141 kts | 193° |
| 2026-04-20 20:17 | -25.15169 | -57.49756 | 1772 ft | 142 kts | 192° |
| 2026-04-20 20:17 | -25.16126 | -57.49991 | 1598 ft | 139 kts | 192° |
| 2026-04-20 20:17 | -25.17066 | -57.50220 | 1401 ft | 137 kts | 192° |
| 2026-04-20 20:18 | -25.17992 | -57.50446 | 1229 ft | 136 kts | 192° |
| 2026-04-20 20:18 | -25.18904 | -57.50669 | 1056 ft | 131 kts | 193° |
| 2026-04-20 20:18 | -25.19756 | -57.50877 | 892 ft | 121 kts | 194° |
| 2026-04-20 20:18 | -25.20554 | -57.51072 | 740 ft | 116 kts | 194° |
| 2026-04-20 20:19 | -25.21343 | -57.51262 | 535 ft | 115 kts | 194° |
| 2026-04-20 20:19 | -25.22087 | -57.51455 | 324 ft | 104 kts | 195° |
| 2026-04-20 20:19 | -25.22776 | -57.51620 | 279 ft | 98 kts | 197° |
| 2026-04-20 20:19 | -25.23329 | -57.51757 | 273 ft | 58 kts | 193° |
| 2026-04-20 20:20 | -25.23587 | -57.51818 | 277 ft | 30 kts | 192° |
| 2026-04-20 20:20 | -25.23777 | -57.51864 | 279 ft | 26 kts | 192° |
| 2026-04-20 20:20 | -25.23930 | -57.51901 | 283 ft | 20 kts | 191° |
| 2026-04-20 20:20 | -25.24052 | -57.51931 | 286 ft | 16 kts | 191° |
| 2026-04-20 20:21 | -25.24148 | -57.51953 | 287 ft | 13 kts | 193° |
| 2026-04-20 20:21 | -25.24222 | -57.51970 | 294 ft | 9 kts | 184° |
| 2026-04-20 20:21 | -25.24257 | -57.51936 | 290 ft | 7 kts | 111° |
| 2026-04-20 20:21 | -25.24269 | -57.51887 | 288 ft | 7 kts | 101° |
| 2026-04-20 20:22 | -25.24275 | -57.51854 | 287 ft | 7 kts | 102° |
| 2026-04-20 20:22 | -25.24289 | -57.51790 | 287 ft | 7 kts | 103° |
| 2026-04-20 20:22 | -25.24302 | -57.51722 | 287 ft | 9 kts | 103° |
| 2026-04-20 20:22 | -25.24298 | -57.51662 | 288 ft | 7 kts | 45° |
| 2026-04-20 20:23 | -25.24249 | -57.51645 | 286 ft | 8 kts | 18° |
| 2026-04-20 20:23 | -25.24215 | -57.51606 | 288 ft | 7 kts | 82° |
| 2026-04-20 20:23 | -25.24228 | -57.51563 | 285 ft | 5 kts | 121° |
| 2026-04-20 20:23 | -25.24231 | -57.51557 | 290 ft | 0 kts | 121° |